createdAt,value
2023-03-28T00:00:07.310Z,99467.39
2023-03-28T00:00:35.738Z,99474.06
2023-03-28T00:01:11.322Z,99469.46
2023-03-28T00:01:36.813Z,99469.36
2023-03-28T00:02:00.522Z,99465.07
2023-03-28T00:02:24.060Z,99466.60
2023-03-28T00:02:47.713Z,99464.73
2023-03-28T00:03:14.663Z,99464.91
2023-03-28T00:03:40.577Z,99469.77
2023-03-28T00:04:04.938Z,99468.14
2023-03-28T00:04:30.040Z,99471.19
2023-03-28T00:04:53.159Z,99468.91
2023-03-28T00:05:17.616Z,99470.59
2023-03-28T00:05:41.216Z,99466.69
2023-03-28T00:06:05.956Z,99467.04
2023-03-28T00:06:29.127Z,99465.83
2023-03-28T00:06:53.551Z,99464.43
2023-03-28T00:07:16.651Z,99467.24
2023-03-28T00:07:42.731Z,99464.95
2023-03-28T00:08:06.966Z,99464.08
2023-03-28T00:08:32.276Z,99462.91
2023-03-28T00:08:56.068Z,99460.21
2023-03-28T00:09:22.756Z,99459.09
2023-03-28T00:09:48.842Z,99461.14
2023-03-28T00:10:12.973Z,99457.66
2023-03-28T00:10:36.495Z,99460.14
2023-03-28T00:11:21.494Z,99462.08
2023-03-28T00:11:45.021Z,99459.43
2023-03-28T00:12:08.112Z,99462.64
2023-03-28T00:12:31.245Z,99458.58
2023-03-28T00:12:54.400Z,99462.00
2023-03-28T00:13:20.155Z,99459.45
2023-03-28T00:13:43.351Z,99459.08
2023-03-28T00:14:10.553Z,99456.85
2023-03-28T00:14:35.832Z,99459.10
2023-03-28T00:15:01.081Z,99460.96
2023-03-28T00:15:25.833Z,99463.18
2023-03-28T00:15:53.045Z,99461.20
2023-03-28T00:16:18.650Z,99462.56
2023-03-28T00:16:45.848Z,99462.19
2023-03-28T00:17:10.254Z,99463.27
2023-03-28T00:17:35.140Z,99464.90
2023-03-28T00:18:00.358Z,99462.86
2023-03-28T00:18:23.593Z,99464.02
2023-03-28T00:18:47.564Z,99464.65
2023-03-28T00:19:11.916Z,99465.86
2023-03-28T00:19:40.751Z,99462.95
2023-03-28T00:20:06.823Z,99460.71
2023-03-28T00:20:32.243Z,99461.17
2023-03-28T00:20:55.768Z,99458.94
2023-03-28T00:21:25.946Z,99461.02
2023-03-28T00:21:49.467Z,99459.49
2023-03-28T00:22:12.882Z,99461.59
2023-03-28T00:22:38.313Z,99459.77
2023-03-28T00:23:01.361Z,99460.27
2023-03-28T00:23:24.995Z,99456.42
2023-03-28T00:23:52.708Z,99460.45
2023-03-28T00:24:16.946Z,99456.92
2023-03-28T00:24:39.967Z,99455.70
2023-03-28T00:25:03.279Z,99463.55
2023-03-28T00:25:27.205Z,99461.89
2023-03-28T00:25:50.320Z,99459.79
2023-03-28T00:26:14.675Z,99464.99
2023-03-28T00:26:37.776Z,99460.05
2023-03-28T00:27:02.024Z,99460.30
2023-03-28T00:27:25.537Z,99461.25
2023-03-28T00:27:48.551Z,99462.96
2023-03-28T00:28:11.707Z,99459.56
2023-03-28T00:28:35.408Z,99462.40
2023-03-28T00:28:58.606Z,99460.48
2023-03-28T00:29:26.331Z,99463.80
2023-03-28T00:29:49.438Z,99463.19
2023-03-28T00:30:13.164Z,99461.33
2023-03-28T00:30:36.792Z,99462.35
2023-03-28T00:31:07.434Z,99463.98
2023-03-28T00:31:30.849Z,99462.73
2023-03-28T00:31:54.232Z,99460.52
2023-03-28T00:32:17.325Z,99461.47
2023-03-28T00:32:41.080Z,99457.57
2023-03-28T00:33:09.080Z,99454.16
2023-03-28T00:33:32.803Z,99452.67
2023-03-28T00:33:55.918Z,99460.24
2023-03-28T00:34:19.044Z,99458.56
2023-03-28T00:34:42.351Z,99458.27
2023-03-28T00:35:06.286Z,99456.95
2023-03-28T00:35:29.616Z,99457.45
2023-03-28T00:35:52.926Z,99456.66
2023-03-28T00:36:18.703Z,99453.41
2023-03-28T00:36:48.452Z,99458.45
2023-03-28T00:37:17.505Z,99456.27
2023-03-28T00:37:42.682Z,99457.63
2023-03-28T00:38:06.285Z,99451.96
2023-03-28T00:38:29.402Z,99453.95
2023-03-28T00:38:54.020Z,99455.10
2023-03-28T00:39:18.083Z,99449.71
2023-03-28T00:39:41.399Z,99447.18
2023-03-28T00:40:07.891Z,99449.36
2023-03-28T00:40:35.708Z,99446.98
2023-03-28T00:41:00.209Z,99447.73
2023-03-28T00:41:23.794Z,99448.11
2023-03-28T00:41:48.325Z,99446.63
2023-03-28T00:42:13.700Z,99449.89
2023-03-28T00:42:44.167Z,99447.04
2023-03-28T00:43:12.709Z,99448.83
2023-03-28T00:43:40.992Z,99444.66
2023-03-28T00:44:24.197Z,99446.15
2023-03-28T00:44:56.344Z,99444.42
2023-03-28T00:45:21.813Z,99444.14
2023-03-28T00:45:47.309Z,99444.27
2023-03-28T00:46:21.615Z,99443.58
2023-03-28T00:46:45.055Z,99442.06
2023-03-28T00:47:11.205Z,99442.17
2023-03-28T00:47:46.577Z,99442.70
2023-03-28T00:48:14.192Z,99440.33
2023-03-28T00:48:39.672Z,99439.10
2023-03-28T00:49:03.480Z,99441.25
2023-03-28T00:49:27.748Z,99444.33
2023-03-28T00:49:55.673Z,99441.71
2023-03-28T00:50:22.784Z,99438.48
2023-03-28T00:50:48.938Z,99440.86
2023-03-28T00:51:14.822Z,99439.86
2023-03-28T00:51:41.724Z,99439.70
2023-03-28T00:52:04.671Z,99437.83
2023-03-28T00:52:29.994Z,99434.15
2023-03-28T00:52:59.143Z,99435.05
2023-03-28T00:53:23.694Z,99433.27
2023-03-28T00:53:46.663Z,99433.36
2023-03-28T00:54:13.397Z,99431.80
2023-03-28T00:54:39.828Z,99431.96
2023-03-28T00:55:04.738Z,99431.21
2023-03-28T00:55:54.646Z,99434.02
2023-03-28T00:56:18.271Z,99431.15
2023-03-28T00:56:44.471Z,99428.45
2023-03-28T00:57:07.704Z,99431.48
2023-03-28T00:57:31.605Z,99426.61
2023-03-28T00:57:55.132Z,99428.72
2023-03-28T00:58:20.087Z,99425.48
2023-03-28T00:58:45.038Z,99423.81
2023-03-28T00:59:09.486Z,99425.49
2023-03-28T00:59:33.105Z,99424.23
2023-03-28T00:59:58.162Z,99420.37
2023-03-28T01:00:21.564Z,99424.80
2023-03-28T01:00:48.071Z,99423.63
2023-03-28T01:01:15.990Z,99423.73
2023-03-28T01:01:41.098Z,99423.98
2023-03-28T01:02:07.654Z,99423.20
2023-03-28T01:02:34.707Z,99420.98
2023-03-28T01:02:59.205Z,99424.46
2023-03-28T01:03:25.501Z,99422.45
2023-03-28T01:03:56.471Z,99421.64
2023-03-28T01:04:20.588Z,99421.20
2023-03-28T01:04:49.669Z,99419.11
2023-03-28T01:05:17.367Z,99417.45
2023-03-28T01:05:40.472Z,99417.85
2023-03-28T01:06:04.683Z,99415.13
2023-03-28T01:06:38.669Z,99416.75
2023-03-28T01:07:01.895Z,99416.78
2023-03-28T01:07:27.038Z,99412.79
2023-03-28T01:07:51.604Z,99417.55
2023-03-28T01:08:21.352Z,99415.30
2023-03-28T01:08:44.972Z,99416.44
2023-03-28T01:09:08.700Z,99414.55
2023-03-28T01:09:31.858Z,99416.63
2023-03-28T01:09:55.747Z,99413.69
2023-03-28T01:10:19.709Z,99413.20
2023-03-28T01:10:47.307Z,99409.69
2023-03-28T01:11:15.009Z,99409.19
2023-03-28T01:11:38.600Z,99410.98
2023-03-28T01:12:03.700Z,99410.54
2023-03-28T01:12:27.727Z,99410.73
2023-03-28T01:12:50.942Z,99411.05
2023-03-28T01:13:16.101Z,99409.92
2023-03-28T01:13:42.214Z,99410.13
2023-03-28T01:14:07.263Z,99408.42
2023-03-28T01:14:30.865Z,99410.17
2023-03-28T01:14:56.228Z,99411.86
2023-03-28T01:15:20.055Z,99411.17
2023-03-28T01:15:52.701Z,99405.94
2023-03-28T01:16:17.043Z,99408.84
2023-03-28T01:16:42.305Z,99410.54
2023-03-28T01:17:05.814Z,99406.11
2023-03-28T01:17:30.975Z,99405.41
2023-03-28T01:17:54.233Z,99405.80
2023-03-28T01:18:18.829Z,99405.45
2023-03-28T01:18:42.206Z,99404.63
2023-03-28T01:19:06.795Z,99402.43
2023-03-28T01:19:36.355Z,99403.78
2023-03-28T01:20:17.642Z,99401.41
2023-03-28T01:20:51.735Z,99400.60
2023-03-28T01:21:15.571Z,99398.15
2023-03-28T01:22:06.832Z,99396.98
2023-03-28T01:22:56.842Z,99395.90
2023-03-28T01:23:39.371Z,99391.83
2023-03-28T01:24:21.605Z,99392.52
2023-03-28T01:25:04.939Z,99391.66
2023-03-28T01:25:41.299Z,99393.77
2023-03-28T01:26:11.038Z,99392.42
2023-03-28T01:26:34.154Z,99391.06
2023-03-28T01:26:57.350Z,99391.80
2023-03-28T01:27:38.887Z,99392.89
2023-03-28T01:28:05.680Z,99388.66
2023-03-28T01:28:38.513Z,99389.78
2023-03-28T01:29:20.352Z,99390.16
2023-03-28T01:29:51.228Z,99390.42
2023-03-28T01:30:14.707Z,99389.92
2023-03-28T01:31:10.963Z,99391.85
2023-03-28T01:31:58.207Z,99389.60
2023-03-28T01:32:46.086Z,99390.16
2023-03-28T01:33:20.791Z,99389.73
2023-03-28T01:34:10.403Z,99388.48
2023-03-28T01:34:48.644Z,99387.52
2023-03-28T01:35:26.914Z,99388.64
2023-03-28T01:35:50.903Z,99385.09
2023-03-28T01:36:34.110Z,99384.39
2023-03-28T01:37:14.996Z,99383.94
2023-03-28T01:37:45.132Z,99389.48
2023-03-28T01:38:28.535Z,99388.30
2023-03-28T01:38:54.729Z,99387.88
2023-03-28T01:39:26.839Z,99386.63
2023-03-28T01:40:13.169Z,99386.77
2023-03-28T01:40:48.572Z,99384.94
2023-03-28T01:41:19.950Z,99383.58
2023-03-28T01:41:58.910Z,99384.75
2023-03-28T01:42:38.087Z,99387.05
2023-03-28T01:43:19.877Z,99386.41
2023-03-28T01:43:48.960Z,99379.61
2023-03-28T01:44:24.256Z,99381.07
2023-03-28T01:44:47.670Z,99382.95
2023-03-28T01:45:43.205Z,99377.94
2023-03-28T01:46:09.330Z,99379.31
2023-03-28T01:46:33.724Z,99378.58
2023-03-28T01:47:01.756Z,99381.27
2023-03-28T01:47:26.004Z,99376.58
2023-03-28T01:47:51.316Z,99378.66
2023-03-28T01:48:29.702Z,99377.96
2023-03-28T01:49:04.927Z,99375.95
2023-03-28T01:49:28.820Z,99372.80
2023-03-28T01:49:52.878Z,99371.79
2023-03-28T01:50:36.321Z,99373.73
2023-03-28T01:51:05.366Z,99373.48
2023-03-28T01:51:47.197Z,99375.60
2023-03-28T01:52:13.551Z,99371.23
2023-03-28T01:52:41.502Z,99371.47
2023-03-28T01:53:17.810Z,99375.02
2023-03-28T01:53:40.927Z,99371.44
2023-03-28T01:54:18.253Z,99370.38
2023-03-28T01:54:44.137Z,99365.05
2023-03-28T01:55:14.505Z,99367.03
2023-03-28T01:55:43.144Z,99367.06
2023-03-28T01:56:30.951Z,99368.55
2023-03-28T01:56:58.094Z,99366.91
2023-03-28T01:57:31.408Z,99366.85
2023-03-28T01:58:07.554Z,99365.91
2023-03-28T01:58:44.576Z,99363.77
2023-03-28T01:59:15.156Z,99362.70
2023-03-28T02:00:19.842Z,99364.09
2023-03-28T02:01:05.658Z,99366.35
2023-03-28T02:01:37.065Z,99369.83
2023-03-28T02:02:15.707Z,99367.31
2023-03-28T02:02:44.236Z,99371.26
2023-03-28T02:03:23.017Z,99371.23
2023-03-28T02:03:52.114Z,99369.75
2023-03-28T02:04:31.187Z,99371.80
2023-03-28T02:04:57.126Z,99367.84
2023-03-28T02:05:23.754Z,99367.61
2023-03-28T02:05:53.524Z,99369.27
2023-03-28T02:06:17.551Z,99367.05
2023-03-28T02:06:47.110Z,99365.27
2023-03-28T02:07:13.272Z,99365.96
2023-03-28T02:07:57.674Z,99362.78
2023-03-28T02:08:41.680Z,99360.98
2023-03-28T02:09:32.537Z,99359.91
2023-03-28T02:10:01.871Z,99361.46
2023-03-28T02:10:57.579Z,99355.98
2023-03-28T02:11:30.214Z,99356.33
2023-03-28T02:12:25.339Z,99354.23
2023-03-28T02:13:02.723Z,99355.28
2023-03-28T02:13:58.914Z,99354.42
2023-03-28T02:14:49.035Z,99355.00
2023-03-28T02:15:23.904Z,99353.42
2023-03-28T02:16:13.445Z,99356.85
2023-03-28T02:16:57.570Z,99355.60
2023-03-28T02:17:43.661Z,99356.66
2023-03-28T02:18:31.684Z,99359.48
2023-03-28T02:19:14.743Z,99357.77
2023-03-28T02:19:59.438Z,99357.77
2023-03-28T02:20:41.778Z,99360.39
2023-03-28T02:21:34.349Z,99357.03
2023-03-28T02:22:25.083Z,99357.41
2023-03-28T02:23:15.808Z,99360.31
2023-03-28T02:23:57.636Z,99359.40
2023-03-28T02:24:26.886Z,99361.95
2023-03-28T02:25:05.990Z,99359.95
2023-03-28T02:25:49.865Z,99358.39
2023-03-28T02:26:33.609Z,99357.15
2023-03-28T02:27:23.314Z,99359.39
2023-03-28T02:28:06.678Z,99356.45
2023-03-28T02:28:39.205Z,99354.77
2023-03-28T02:29:08.961Z,99356.02
2023-03-28T02:29:42.504Z,99353.93
2023-03-28T02:30:28.629Z,99354.92
2023-03-28T02:30:55.533Z,99353.11
2023-03-28T02:31:18.653Z,99355.05
2023-03-28T02:31:42.101Z,99352.50
2023-03-28T02:32:06.233Z,99353.96
2023-03-28T02:32:34.189Z,99353.01
2023-03-28T02:33:05.065Z,99355.23
2023-03-28T02:33:33.244Z,99355.92
2023-03-28T02:33:59.028Z,99355.52
2023-03-28T02:34:22.001Z,99355.85
2023-03-28T02:34:45.867Z,99355.59
2023-03-28T02:35:09.296Z,99354.13
2023-03-28T02:36:02.078Z,99352.45
2023-03-28T02:36:45.014Z,99356.41
2023-03-28T02:37:11.114Z,99354.73
2023-03-28T02:37:41.353Z,99353.68
2023-03-28T02:38:27.583Z,99351.00
2023-03-28T02:39:13.508Z,99349.59
2023-03-28T02:39:59.875Z,99349.70
2023-03-28T02:40:22.957Z,99348.28
2023-03-28T02:41:09.597Z,99350.70
2023-03-28T02:41:47.632Z,99348.66
2023-03-28T02:42:16.171Z,99351.48
2023-03-28T02:42:42.251Z,99346.10
2023-03-28T02:43:05.974Z,99349.17
2023-03-28T02:43:35.649Z,99352.25
2023-03-28T02:44:34.348Z,99346.56
2023-03-28T02:44:57.460Z,99346.55
2023-03-28T02:45:23.953Z,99345.59
2023-03-28T02:45:56.316Z,99346.57
2023-03-28T02:46:21.781Z,99345.71
2023-03-28T02:47:03.663Z,99343.20
2023-03-28T02:47:32.107Z,99339.96
2023-03-28T02:47:58.526Z,99343.66
2023-03-28T02:48:47.473Z,99339.16
2023-03-28T02:49:14.486Z,99338.22
2023-03-28T02:49:50.834Z,99339.90
2023-03-28T02:50:18.977Z,99340.27
2023-03-28T02:50:46.928Z,99337.88
2023-03-28T02:51:30.343Z,99339.10
2023-03-28T02:52:09.576Z,99334.61
2023-03-28T02:52:37.491Z,99334.91
2023-03-28T02:53:27.337Z,99335.90
2023-03-28T02:54:10.979Z,99333.31
2023-03-28T02:54:43.102Z,99336.69
2023-03-28T02:55:17.690Z,99331.81
2023-03-28T02:56:07.660Z,99334.60
2023-03-28T02:57:01.518Z,99336.16
2023-03-28T02:57:49.014Z,99332.62
2023-03-28T02:58:23.071Z,99333.13
2023-03-28T02:58:51.816Z,99331.11
2023-03-28T02:59:28.640Z,99332.76
2023-03-28T02:59:53.997Z,99333.92
2023-03-28T03:00:18.724Z,99331.88
2023-03-28T03:00:43.128Z,99333.84
2023-03-28T03:01:07.052Z,99334.39
2023-03-28T03:01:31.100Z,99329.57
2023-03-28T03:01:54.481Z,99332.13
2023-03-28T03:02:18.112Z,99331.11
2023-03-28T03:02:42.305Z,99328.55
2023-03-28T03:03:05.639Z,99331.04
2023-03-28T03:03:28.681Z,99331.64
2023-03-28T03:03:52.271Z,99333.59
2023-03-28T03:04:17.484Z,99333.14
2023-03-28T03:04:40.873Z,99335.96
2023-03-28T03:05:04.407Z,99331.11
2023-03-28T03:05:27.616Z,99332.66
2023-03-28T03:05:50.936Z,99330.88
2023-03-28T03:06:14.456Z,99331.89
2023-03-28T03:06:37.576Z,99333.10
2023-03-28T03:07:03.476Z,99329.42
2023-03-28T03:07:28.708Z,99330.17
2023-03-28T03:07:52.649Z,99324.77
2023-03-28T03:08:16.275Z,99323.19
2023-03-28T03:08:46.495Z,99323.55
2023-03-28T03:09:11.495Z,99321.23
2023-03-28T03:09:36.150Z,99318.51
2023-03-28T03:10:00.945Z,99321.88
2023-03-28T03:10:25.644Z,99319.98
2023-03-28T03:10:48.761Z,99322.39
2023-03-28T03:11:13.043Z,99314.33
2023-03-28T03:11:36.943Z,99313.05
2023-03-28T03:12:00.664Z,99315.61
2023-03-28T03:12:24.385Z,99313.67
2023-03-28T03:12:52.094Z,99311.49
2023-03-28T03:13:16.811Z,99311.06
2023-03-28T03:13:39.964Z,99310.33
2023-03-28T03:14:02.980Z,99309.73
2023-03-28T03:14:27.341Z,99308.41
2023-03-28T03:14:52.072Z,99306.20
2023-03-28T03:15:35.804Z,99310.43
2023-03-28T03:16:16.168Z,99305.16
2023-03-28T03:16:39.438Z,99301.96
2023-03-28T03:17:05.868Z,99303.65
2023-03-28T03:17:29.181Z,99306.92
2023-03-28T03:17:52.881Z,99306.13
2023-03-28T03:18:20.810Z,99308.15
2023-03-28T03:18:43.930Z,99305.68
2023-03-28T03:19:07.684Z,99304.92
2023-03-28T03:19:31.993Z,99304.98
2023-03-28T03:19:56.338Z,99303.35
2023-03-28T03:20:19.882Z,99306.05
2023-03-28T03:20:45.777Z,99304.64
2023-03-28T03:21:12.425Z,99304.78
2023-03-28T03:21:39.380Z,99304.70
2023-03-28T03:22:07.444Z,99302.83
2023-03-28T03:22:31.802Z,99301.97
2023-03-28T03:22:55.627Z,99297.41
2023-03-28T03:23:18.937Z,99296.20
2023-03-28T03:23:42.052Z,99295.41
2023-03-28T03:24:05.580Z,99295.30
2023-03-28T03:24:28.687Z,99292.88
2023-03-28T03:24:56.608Z,99296.64
2023-03-28T03:25:20.159Z,99298.42
2023-03-28T03:25:56.912Z,99296.27
2023-03-28T03:26:58.832Z,99292.97
2023-03-28T03:27:22.658Z,99294.05
2023-03-28T03:27:47.924Z,99294.61
2023-03-28T03:28:13.310Z,99296.48
2023-03-28T03:28:39.881Z,99297.16
2023-03-28T03:29:03.195Z,99292.77
2023-03-28T03:29:27.533Z,99293.16
2023-03-28T03:30:10.525Z,99290.29
2023-03-28T03:30:53.548Z,99293.23
2023-03-28T03:31:24.295Z,99295.28
2023-03-28T03:32:07.388Z,99294.20
2023-03-28T03:32:36.863Z,99292.68
2023-03-28T03:33:05.661Z,99292.78
2023-03-28T03:33:30.598Z,99294.20
2023-03-28T03:33:59.173Z,99294.73
2023-03-28T03:34:29.857Z,99296.56
2023-03-28T03:34:53.995Z,99295.44
2023-03-28T03:35:17.254Z,99296.89
2023-03-28T03:35:42.335Z,99292.66
2023-03-28T03:36:06.132Z,99291.44
2023-03-28T03:36:30.746Z,99296.23
2023-03-28T03:36:56.333Z,99292.37
2023-03-28T03:37:19.632Z,99293.98
2023-03-28T03:37:42.957Z,99289.35
2023-03-28T03:38:06.379Z,99291.02
2023-03-28T03:38:30.509Z,99293.14
2023-03-28T03:38:53.726Z,99290.43
2023-03-28T03:39:18.789Z,99290.06
2023-03-28T03:39:42.148Z,99291.13
2023-03-28T03:40:06.767Z,99288.02
2023-03-28T03:40:30.578Z,99291.39
2023-03-28T03:40:55.226Z,99288.59
2023-03-28T03:41:19.063Z,99290.14
2023-03-28T03:41:42.173Z,99287.79
2023-03-28T03:42:05.609Z,99286.80
2023-03-28T03:42:29.897Z,99287.04
2023-03-28T03:42:53.564Z,99284.04
2023-03-28T03:43:16.877Z,99282.48
2023-03-28T03:43:41.423Z,99281.21
2023-03-28T03:44:04.761Z,99281.38
2023-03-28T03:44:28.890Z,99280.96
2023-03-28T03:44:54.583Z,99281.52
2023-03-28T03:45:18.692Z,99281.67
2023-03-28T03:45:42.071Z,99279.66
2023-03-28T03:46:05.731Z,99278.60
2023-03-28T03:46:33.818Z,99277.96
2023-03-28T03:46:58.404Z,99275.61
2023-03-28T03:47:21.932Z,99274.86
2023-03-28T03:47:46.614Z,99274.73
2023-03-28T03:48:09.761Z,99272.98
2023-03-28T03:48:34.131Z,99269.46
2023-03-28T03:48:58.536Z,99270.03
2023-03-28T03:49:22.408Z,99273.04
2023-03-28T03:49:46.138Z,99271.48
2023-03-28T03:50:09.655Z,99273.48
2023-03-28T03:50:33.280Z,99271.80
2023-03-28T03:50:57.021Z,99273.38
2023-03-28T03:51:20.351Z,99272.66
2023-03-28T03:51:45.288Z,99271.16
2023-03-28T03:52:11.676Z,99272.14
2023-03-28T03:52:42.253Z,99269.73
2023-03-28T03:53:07.663Z,99271.58
2023-03-28T03:53:36.664Z,99271.01
2023-03-28T03:54:03.865Z,99269.84
2023-03-28T03:54:31.216Z,99269.71
2023-03-28T03:54:55.620Z,99269.75
2023-03-28T03:55:20.951Z,99269.77
2023-03-28T03:55:44.445Z,99267.40
2023-03-28T03:56:09.254Z,99270.02
2023-03-28T03:56:52.954Z,99269.81
2023-03-28T03:57:16.364Z,99265.48
2023-03-28T03:57:39.876Z,99269.52
2023-03-28T03:58:04.108Z,99271.18
2023-03-28T03:58:27.528Z,99267.21
2023-03-28T03:58:55.857Z,99266.49
2023-03-28T03:59:22.259Z,99262.44
2023-03-28T03:59:48.526Z,99263.70
2023-03-28T04:00:14.922Z,99264.30
2023-03-28T04:00:44.895Z,99265.02
2023-03-28T04:01:21.403Z,99262.33
2023-03-28T04:01:45.459Z,99264.31
2023-03-28T04:02:29.352Z,99260.82
2023-03-28T04:02:57.051Z,99264.11
2023-03-28T04:03:24.308Z,99260.64
2023-03-28T04:03:50.031Z,99264.23
2023-03-28T04:04:18.856Z,99267.53
2023-03-28T04:05:04.962Z,99260.30
2023-03-28T04:05:42.948Z,99264.94
2023-03-28T04:06:07.677Z,99265.51
2023-03-28T04:06:31.081Z,99263.42
2023-03-28T04:08:04.764Z,99267.69
2023-03-28T04:08:33.729Z,99264.21
2023-03-28T04:08:58.377Z,99256.11
2023-03-28T04:09:39.777Z,99262.47
2023-03-28T04:10:03.713Z,99262.46
2023-03-28T04:10:28.051Z,99262.50
2023-03-28T04:10:51.336Z,99263.02
2023-03-28T04:11:14.282Z,99260.12
2023-03-28T04:11:39.031Z,99263.10
2023-03-28T04:12:02.361Z,99261.38
2023-03-28T04:12:26.381Z,99267.17
2023-03-28T04:12:51.338Z,99268.59
2023-03-28T04:13:14.267Z,99267.44
2023-03-28T04:13:37.869Z,99267.92
2023-03-28T04:14:04.363Z,99271.17
2023-03-28T04:14:31.874Z,99267.30
2023-03-28T04:15:13.840Z,99266.67
2023-03-28T04:15:57.260Z,99266.39
2023-03-28T04:16:28.118Z,99263.82
2023-03-28T04:17:05.080Z,99263.89
2023-03-28T04:17:30.300Z,99262.95
2023-03-28T04:17:56.996Z,99263.27
2023-03-28T04:18:21.090Z,99261.20
2023-03-28T04:18:51.138Z,99264.34
2023-03-28T04:19:18.343Z,99262.57
2023-03-28T04:19:41.930Z,99262.06
2023-03-28T04:20:14.037Z,99260.05
2023-03-28T04:21:17.107Z,99255.98
2023-03-28T04:21:42.696Z,99259.02
2023-03-28T04:22:08.265Z,99254.84
2023-03-28T04:22:31.766Z,99256.22
2023-03-28T04:22:55.164Z,99254.64
2023-03-28T04:23:20.545Z,99251.52
2023-03-28T04:23:44.383Z,99250.86
2023-03-28T04:24:24.386Z,99250.81
2023-03-28T04:25:07.511Z,99253.75
2023-03-28T04:25:33.036Z,99249.75
2023-03-28T04:26:02.730Z,99250.33
2023-03-28T04:26:46.032Z,99254.16
2023-03-28T04:27:09.935Z,99253.45
2023-03-28T04:27:34.381Z,99254.20
2023-03-28T04:27:57.592Z,99261.27
2023-03-28T04:28:25.646Z,99252.67
2023-03-28T04:29:04.187Z,99256.91
2023-03-28T04:29:32.813Z,99254.30
2023-03-28T04:30:22.518Z,99253.75
2023-03-28T04:31:12.337Z,99252.14
2023-03-28T04:32:13.891Z,99249.87
2023-03-28T04:32:55.602Z,99250.20
2023-03-28T04:33:25.227Z,99248.95
2023-03-28T04:33:49.012Z,99247.15
2023-03-28T04:34:14.169Z,99246.28
2023-03-28T04:34:51.193Z,99243.86
2023-03-28T04:35:16.660Z,99243.91
2023-03-28T04:35:41.047Z,99244.77
2023-03-28T04:36:04.583Z,99244.12
2023-03-28T04:36:29.481Z,99244.33
2023-03-28T04:37:02.041Z,99242.23
2023-03-28T04:37:27.988Z,99245.81
2023-03-28T04:37:53.927Z,99238.75
2023-03-28T04:38:20.714Z,99237.59
2023-03-28T04:38:46.020Z,99236.32
2023-03-28T04:39:22.028Z,99233.61
2023-03-28T04:40:16.550Z,99230.55
2023-03-28T04:40:59.387Z,99228.29
2023-03-28T04:41:46.322Z,99230.77
2023-03-28T04:42:24.680Z,99232.46
2023-03-28T04:43:00.679Z,99235.55
2023-03-28T04:43:37.805Z,99235.71
2023-03-28T04:44:02.058Z,99236.16
2023-03-28T04:44:26.386Z,99238.20
2023-03-28T04:44:59.229Z,99241.08
2023-03-28T04:45:23.665Z,99241.20
2023-03-28T04:45:47.523Z,99240.99
2023-03-28T04:46:12.807Z,99240.01
2023-03-28T04:46:36.378Z,99242.17
2023-03-28T04:47:08.761Z,99242.96
2023-03-28T04:47:32.497Z,99239.20
2023-03-28T04:47:56.116Z,99239.35
2023-03-28T04:48:19.680Z,99242.96
2023-03-28T04:48:42.895Z,99234.99
2023-03-28T04:49:08.870Z,99236.36
2023-03-28T04:49:32.420Z,99237.73
2023-03-28T04:49:56.120Z,99237.14
2023-03-28T04:50:22.914Z,99234.38
2023-03-28T04:50:46.965Z,99236.72
2023-03-28T04:51:11.611Z,99231.86
2023-03-28T04:51:35.941Z,99230.38
2023-03-28T04:51:59.173Z,99229.84
2023-03-28T04:52:22.376Z,99226.89
2023-03-28T04:52:46.002Z,99230.91
2023-03-28T04:53:10.747Z,99232.68
2023-03-28T04:53:37.455Z,99230.77
2023-03-28T04:54:23.979Z,99227.50
2023-03-28T04:55:05.467Z,99227.77
2023-03-28T04:55:31.798Z,99232.90
2023-03-28T04:56:02.981Z,99230.20
2023-03-28T04:56:29.982Z,99231.45
2023-03-28T04:56:53.455Z,99227.70
2023-03-28T04:57:22.156Z,99230.21
2023-03-28T04:57:49.456Z,99227.40
2023-03-28T04:58:16.177Z,99225.16
2023-03-28T04:58:40.484Z,99226.65
2023-03-28T04:59:03.791Z,99223.91
2023-03-28T04:59:27.426Z,99224.11
2023-03-28T04:59:50.661Z,99218.48
2023-03-28T05:00:20.116Z,99222.33
2023-03-28T05:01:03.760Z,99222.67
2023-03-28T05:01:49.783Z,99217.50
2023-03-28T05:02:26.254Z,99221.70
2023-03-28T05:02:57.009Z,99221.83
2023-03-28T05:03:22.641Z,99221.25
2023-03-28T05:03:55.589Z,99220.59
2023-03-28T05:04:19.420Z,99219.96
2023-03-28T05:04:43.452Z,99221.48
2023-03-28T05:05:07.812Z,99218.96
2023-03-28T05:05:32.540Z,99216.41
2023-03-28T05:05:56.292Z,99215.42
2023-03-28T05:06:19.655Z,99219.16
2023-03-28T05:06:43.022Z,99211.96
2023-03-28T05:07:09.514Z,99217.77
2023-03-28T05:07:57.678Z,99216.19
2023-03-28T05:08:22.775Z,99217.48
2023-03-28T05:08:45.739Z,99213.08
2023-03-28T05:09:08.853Z,99208.59
2023-03-28T05:09:32.283Z,99209.92
2023-03-28T05:09:56.921Z,99213.33
2023-03-28T05:10:25.872Z,99213.55
2023-03-28T05:10:55.546Z,99212.21
2023-03-28T05:11:19.251Z,99204.67
2023-03-28T05:11:42.656Z,99208.21
2023-03-28T05:12:06.298Z,99213.91
2023-03-28T05:12:31.767Z,99203.20
2023-03-28T05:12:59.890Z,99205.92
2023-03-28T05:13:48.880Z,99207.46
2023-03-28T05:14:26.622Z,99202.52
2023-03-28T05:15:02.127Z,99202.59
2023-03-28T05:15:26.568Z,99209.10
2023-03-28T05:16:16.820Z,99202.45
2023-03-28T05:17:01.161Z,99202.25
2023-03-28T05:17:45.691Z,99201.11
2023-03-28T05:18:29.110Z,99201.41
2023-03-28T05:18:53.857Z,99204.89
2023-03-28T05:19:22.087Z,99204.73
2023-03-28T05:19:59.111Z,99206.96
2023-03-28T05:20:29.002Z,99207.82
2023-03-28T05:20:53.327Z,99210.66
2023-03-28T05:21:17.067Z,99210.79
2023-03-28T05:21:41.289Z,99210.38
2023-03-28T05:22:04.396Z,99211.25
2023-03-28T05:22:28.128Z,99207.73
2023-03-28T05:22:54.620Z,99211.08
2023-03-28T05:23:17.836Z,99208.05
2023-03-28T05:23:43.397Z,99210.25
2023-03-28T05:24:18.197Z,99206.88
2023-03-28T05:24:45.786Z,99202.65
2023-03-28T05:25:13.303Z,99205.00
2023-03-28T05:25:36.823Z,99199.35
2023-03-28T05:25:59.934Z,99198.73
2023-03-28T05:26:25.913Z,99201.75
2023-03-28T05:26:50.359Z,99199.60
2023-03-28T05:27:18.098Z,99199.12
2023-03-28T05:27:42.004Z,99197.00
2023-03-28T05:28:05.341Z,99197.15
2023-03-28T05:28:54.241Z,99196.26
2023-03-28T05:29:17.332Z,99194.75
2023-03-28T05:29:48.433Z,99199.42
2023-03-28T05:30:14.399Z,99198.59
2023-03-28T05:31:08.810Z,99191.22
2023-03-28T05:31:33.082Z,99195.83
2023-03-28T05:32:09.944Z,99199.80
2023-03-28T05:32:34.146Z,99193.84
2023-03-28T05:32:57.390Z,99192.36
2023-03-28T05:33:21.870Z,99194.66
2023-03-28T05:33:45.591Z,99190.84
2023-03-28T05:34:17.192Z,99194.54
2023-03-28T05:34:43.886Z,99191.96
2023-03-28T05:35:08.763Z,99192.64
2023-03-28T05:35:32.294Z,99192.08
2023-03-28T05:35:55.698Z,99193.16
2023-03-28T05:36:19.253Z,99189.70
2023-03-28T05:36:47.134Z,99193.48
2023-03-28T05:37:18.220Z,99190.50
2023-03-28T05:37:46.903Z,99187.73
2023-03-28T05:38:10.484Z,99188.63
2023-03-28T05:38:34.618Z,99188.48
2023-03-28T05:39:03.666Z,99186.30
2023-03-28T05:39:28.421Z,99188.20
2023-03-28T05:40:11.210Z,99180.98
2023-03-28T05:40:36.536Z,99185.20
2023-03-28T05:40:59.902Z,99185.38
2023-03-28T05:41:23.137Z,99182.95
2023-03-28T05:41:46.485Z,99186.50
2023-03-28T05:42:14.946Z,99185.48
2023-03-28T05:42:38.648Z,99184.23
2023-03-28T05:43:07.183Z,99185.52
2023-03-28T05:43:30.704Z,99183.38
2023-03-28T05:43:53.838Z,99183.56
2023-03-28T05:44:28.898Z,99182.30
2023-03-28T05:45:15.541Z,99185.37